createdAt,value
2023-05-17T00:00:41.481Z,101560.48
2023-05-17T00:03:17.524Z,101559.23
2023-05-17T00:05:45.948Z,101563.21
2023-05-17T00:08:14.660Z,101566.07
2023-05-17T00:10:44.205Z,101561.80
2023-05-17T00:13:12.421Z,101563.71
2023-05-17T00:15:41.261Z,101547.42
2023-05-17T00:18:09.497Z,101560.42
2023-05-17T00:20:37.972Z,101554.63
2023-05-17T00:23:06.424Z,101559.22
2023-05-17T00:25:35.360Z,101559.20
2023-05-17T00:28:03.760Z,101558.30
2023-05-17T00:30:32.402Z,101559.59
2023-05-17T00:33:00.652Z,101559.42
2023-05-17T00:35:29.061Z,101560.35
2023-05-17T00:37:57.486Z,101555.99
2023-05-17T00:40:25.926Z,101553.00
2023-05-17T00:42:54.117Z,101543.17
2023-05-17T00:45:23.889Z,101551.64
2023-05-17T00:47:52.431Z,101541.93
2023-05-17T00:50:21.078Z,101552.81
2023-05-17T00:52:50.826Z,101550.84
2023-05-17T00:55:20.068Z,101551.23
2023-05-17T00:57:49.369Z,101554.73
2023-05-17T01:00:17.748Z,101560.30
2023-05-17T01:02:48.944Z,101558.69
2023-05-17T01:05:17.632Z,101551.46
2023-05-17T01:07:45.854Z,101569.75
2023-05-17T01:10:16.284Z,101565.68
2023-05-17T01:12:58.860Z,101557.67
2023-05-17T01:15:33.350Z,101552.54
2023-05-17T01:18:38.644Z,101557.98
2023-05-17T01:21:28.402Z,101560.45
2023-05-17T01:24:10.663Z,101556.82
2023-05-17T01:26:46.414Z,101557.09
2023-05-17T01:29:17.207Z,101553.90
2023-05-17T01:31:45.706Z,101547.19
2023-05-17T01:34:13.880Z,101546.45
2023-05-17T01:36:43.386Z,101543.42
2023-05-17T01:39:11.934Z,101548.77
2023-05-17T01:41:42.336Z,101553.60
2023-05-17T01:44:33.698Z,101553.02
2023-05-17T01:47:13.872Z,101551.73
2023-05-17T01:49:48.477Z,101547.68
2023-05-17T01:52:32.884Z,101550.08
2023-05-17T01:55:13.603Z,101549.20
2023-05-17T01:57:45.146Z,101549.38
2023-05-17T02:00:15.276Z,101545.07
2023-05-17T02:02:45.573Z,101539.58
2023-05-17T02:05:14.601Z,101538.75
2023-05-17T02:07:42.965Z,101543.19
2023-05-17T02:10:11.828Z,101543.27
2023-05-17T02:12:43.514Z,101540.39
2023-05-17T02:15:12.256Z,101529.04
2023-05-17T02:17:41.251Z,101541.91
2023-05-17T02:20:12.056Z,101539.15
2023-05-17T02:22:40.406Z,101539.46
2023-05-17T02:25:09.070Z,101546.37
2023-05-17T02:27:37.432Z,101543.48
2023-05-17T02:30:06.837Z,101538.57
2023-05-17T02:32:35.425Z,101551.36
2023-05-17T02:35:04.079Z,101560.88
2023-05-17T02:37:32.227Z,101559.47
2023-05-17T02:40:00.797Z,101555.32
2023-05-17T02:42:29.212Z,101549.08
2023-05-17T02:44:58.253Z,101547.96
2023-05-17T02:47:26.561Z,101550.73
2023-05-17T02:49:54.881Z,101554.05
2023-05-17T02:52:23.132Z,101548.98
2023-05-17T02:54:51.827Z,101546.04
2023-05-17T02:57:20.238Z,101546.36
2023-05-17T02:59:48.475Z,101551.90
2023-05-17T03:02:16.945Z,101546.33
2023-05-17T03:04:45.363Z,101547.97
2023-05-17T03:07:13.871Z,101548.91
2023-05-17T03:09:43.006Z,101550.32
2023-05-17T03:12:11.521Z,101551.47
2023-05-17T03:14:40.388Z,101552.83
2023-05-17T03:17:09.882Z,101562.30
2023-05-17T03:19:38.147Z,101566.94
2023-05-17T03:22:06.339Z,101566.83
2023-05-17T03:24:38.337Z,101564.12
2023-05-17T03:27:07.217Z,101568.77
2023-05-17T03:29:36.950Z,101566.85
2023-05-17T03:32:06.768Z,101566.80
2023-05-17T03:34:35.185Z,101569.08
2023-05-17T03:37:03.432Z,101565.80
2023-05-17T03:39:31.857Z,101564.11
2023-05-17T03:42:00.567Z,101571.84
2023-05-17T03:44:29.806Z,101581.66
2023-05-17T03:46:58.962Z,101585.89
2023-05-17T03:49:27.957Z,101586.61
2023-05-17T03:51:56.639Z,101596.15
2023-05-17T03:54:25.042Z,101597.61
2023-05-17T03:56:53.108Z,101599.02
2023-05-17T03:59:21.579Z,101599.29
2023-05-17T04:01:50.103Z,101605.39
2023-05-17T04:04:18.492Z,101609.59
2023-05-17T04:06:47.140Z,101605.88
2023-05-17T04:09:15.812Z,101604.14
2023-05-17T04:11:44.363Z,101605.46
2023-05-17T04:14:12.956Z,101600.37
2023-05-17T04:16:41.553Z,101597.63
2023-05-17T04:19:11.283Z,101576.15
2023-05-17T04:21:40.826Z,101600.69
2023-05-17T04:24:09.049Z,101605.16
2023-05-17T04:26:37.316Z,101609.88
2023-05-17T04:29:06.979Z,101611.88
2023-05-17T04:31:35.554Z,101615.19
2023-05-17T04:34:03.966Z,101618.21
2023-05-17T04:36:32.522Z,101617.84
2023-05-17T04:39:03.730Z,101611.90
2023-05-17T04:41:33.526Z,101607.71
2023-05-17T04:44:03.119Z,101623.20
2023-05-17T04:46:33.986Z,101630.75
2023-05-17T04:49:03.358Z,101632.77
2023-05-17T04:51:32.358Z,101633.13
2023-05-17T04:54:01.567Z,101638.63
2023-05-17T04:56:30.353Z,101638.02
2023-05-17T04:58:59.142Z,101644.14
2023-05-17T05:01:29.632Z,101639.63
2023-05-17T05:03:59.127Z,101641.50
2023-05-17T05:06:28.155Z,101641.69
2023-05-17T05:08:56.409Z,101649.53
2023-05-17T05:11:25.110Z,101655.27
2023-05-17T05:13:53.600Z,101657.77
2023-05-17T05:16:21.829Z,101664.10
2023-05-17T05:18:50.370Z,101666.90
2023-05-17T05:21:19.140Z,101672.05
2023-05-17T05:23:48.338Z,101672.90
2023-05-17T05:26:16.821Z,101669.20
2023-05-17T05:28:45.203Z,101676.41
2023-05-17T05:31:13.608Z,101678.88
2023-05-17T05:33:46.096Z,101678.91
2023-05-17T05:36:14.626Z,101683.83
2023-05-17T05:38:43.006Z,101672.39
2023-05-17T05:41:11.758Z,101654.01
2023-05-17T05:43:39.978Z,101674.52
2023-05-17T05:46:08.824Z,101676.02
2023-05-17T05:48:39.688Z,101671.09
2023-05-17T05:51:09.143Z,101670.17
2023-05-17T05:53:39.113Z,101669.66
2023-05-17T05:56:07.541Z,101650.96
2023-05-17T05:58:36.078Z,101668.81
2023-05-17T06:01:06.311Z,101671.16
2023-05-17T06:03:34.861Z,101677.38
2023-05-17T06:06:03.247Z,101674.93
2023-05-17T06:08:31.583Z,101671.98
2023-05-17T06:10:59.799Z,101678.27
2023-05-17T06:13:28.089Z,101683.45
2023-05-17T06:15:56.372Z,101684.88
2023-05-17T06:18:24.585Z,101681.17
2023-05-17T06:20:52.821Z,101685.56
2023-05-17T06:23:21.085Z,101691.45
2023-05-17T06:25:49.314Z,101693.04
2023-05-17T06:28:17.809Z,101698.40
2023-05-17T06:30:46.888Z,101703.30
2023-05-17T06:33:15.201Z,101708.47
2023-05-17T06:35:55.587Z,101708.67
2023-05-17T06:38:25.961Z,101713.67
2023-05-17T06:40:55.388Z,101716.02
2023-05-17T06:43:23.716Z,101714.34
2023-05-17T06:45:52.094Z,101708.67
2023-05-17T06:48:20.704Z,101707.95
2023-05-17T06:50:48.941Z,101707.09
2023-05-17T06:53:17.162Z,101702.27
2023-05-17T06:55:45.450Z,101692.70
2023-05-17T06:58:13.552Z,101693.91
2023-05-17T07:00:41.890Z,101703.65
2023-05-17T07:03:10.295Z,101697.79
2023-05-17T07:05:38.600Z,101697.14
2023-05-17T07:08:06.841Z,101700.98
2023-05-17T07:10:35.063Z,101704.98
2023-05-17T07:13:03.193Z,101709.45
2023-05-17T07:15:31.584Z,101710.77
2023-05-17T07:18:00.076Z,101716.22
2023-05-17T07:20:28.478Z,101713.44
2023-05-17T07:22:56.835Z,101716.55
2023-05-17T07:25:25.001Z,101715.90
2023-05-17T07:27:53.188Z,101717.99
2023-05-17T07:30:21.458Z,101718.84
2023-05-17T07:32:49.619Z,101718.53
2023-05-17T07:35:19.190Z,101720.04
2023-05-17T07:37:48.494Z,101723.25
2023-05-17T07:40:16.724Z,101712.18
2023-05-17T07:42:44.918Z,101726.92
2023-05-17T07:45:13.172Z,101728.05
2023-05-17T07:47:41.582Z,101711.23
2023-05-17T07:50:10.639Z,101729.48
2023-05-17T07:52:38.793Z,101735.93
2023-05-17T07:55:07.984Z,101742.60
2023-05-17T07:57:36.250Z,101733.02
2023-05-17T08:00:04.849Z,101744.00
2023-05-17T08:02:41.245Z,101741.70
2023-05-17T08:05:10.163Z,101743.17
2023-05-17T08:07:38.375Z,101749.27
2023-05-17T08:10:07.077Z,101742.36
2023-05-17T08:12:36.493Z,101743.90
2023-05-17T08:15:05.191Z,101740.73
2023-05-17T08:17:33.361Z,101745.06
2023-05-17T08:20:01.759Z,101744.81
2023-05-17T08:22:30.035Z,101745.70
2023-05-17T08:24:58.221Z,101745.65
2023-05-17T08:27:27.221Z,101746.34
2023-05-17T08:29:57.802Z,101749.75
2023-05-17T08:32:26.354Z,101759.41
2023-05-17T08:34:55.044Z,101753.48
2023-05-17T08:37:23.174Z,101757.30
2023-05-17T08:39:51.698Z,101754.85
2023-05-17T08:42:25.321Z,101758.54
2023-05-17T08:44:55.003Z,101768.67
2023-05-17T08:47:30.135Z,101771.78
2023-05-17T08:50:05.171Z,101772.98
2023-05-17T08:52:36.204Z,101770.17
2023-05-17T08:55:06.316Z,101774.68
2023-05-17T08:57:39.112Z,101783.34
2023-05-17T09:00:12.662Z,101783.48
2023-05-17T09:02:44.163Z,101779.66
2023-05-17T09:05:14.441Z,101790.40
2023-05-17T09:07:43.174Z,101779.21
2023-05-17T09:10:11.390Z,101793.38
2023-05-17T09:12:40.837Z,101788.90
2023-05-17T09:15:20.645Z,101784.92
2023-05-17T09:17:53.866Z,101793.33
2023-05-17T09:20:34.662Z,101798.68
2023-05-17T09:23:04.540Z,101796.05
2023-05-17T09:25:32.877Z,101796.36
2023-05-17T09:28:02.757Z,101798.69
2023-05-17T09:30:33.276Z,101801.15
2023-05-17T09:33:07.315Z,101799.50
2023-05-17T09:35:36.859Z,101804.10
2023-05-17T09:38:09.159Z,101802.16
2023-05-17T09:40:41.930Z,101796.67
2023-05-17T09:43:11.487Z,101807.82
2023-05-17T09:45:40.032Z,101808.65
2023-05-17T09:48:18.941Z,101813.28
2023-05-17T09:50:51.455Z,101814.44
2023-05-17T09:53:31.736Z,101812.16
2023-05-17T09:56:01.357Z,101811.55
2023-05-17T09:58:32.345Z,101810.26
2023-05-17T10:01:04.884Z,101807.59
2023-05-17T10:03:36.057Z,101808.60
2023-05-17T10:06:13.387Z,101796.37
2023-05-17T10:08:55.411Z,101808.65
2023-05-17T10:11:34.437Z,101807.25
2023-05-17T10:14:13.364Z,101804.41
2023-05-17T10:16:43.195Z,101804.60
2023-05-17T10:19:11.955Z,101803.35
2023-05-17T10:21:41.321Z,101796.98
2023-05-17T10:24:11.506Z,101808.97
2023-05-17T10:26:40.367Z,101815.69
2023-05-17T10:29:10.244Z,101811.27
2023-05-17T10:31:41.451Z,101804.04
2023-05-17T10:34:12.107Z,101808.41
2023-05-17T10:36:42.578Z,101811.27
2023-05-17T10:39:11.760Z,101802.73
2023-05-17T10:41:46.455Z,101797.33
2023-05-17T10:44:16.859Z,101792.48
2023-05-17T10:46:52.874Z,101803.04
2023-05-17T10:49:24.595Z,101810.23
2023-05-17T10:51:53.190Z,101803.89
2023-05-17T10:54:21.714Z,101810.35
2023-05-17T10:56:54.335Z,101807.41
2023-05-17T10:59:28.145Z,101800.53
2023-05-17T11:02:06.178Z,101800.73
2023-05-17T11:04:45.738Z,101809.32
2023-05-17T11:07:17.213Z,101802.46
2023-05-17T11:09:49.514Z,101813.63
2023-05-17T11:12:48.149Z,101810.69
2023-05-17T11:15:17.618Z,101804.68
2023-05-17T11:17:52.048Z,101818.58
2023-05-17T11:20:26.979Z,101818.67
2023-05-17T11:23:04.929Z,101814.58
2023-05-17T11:25:37.260Z,101823.23
2023-05-17T11:28:19.428Z,101826.52
2023-05-17T11:30:52.158Z,101822.95
2023-05-17T11:33:33.026Z,101818.65
2023-05-17T11:36:24.273Z,101825.90
2023-05-17T11:39:12.283Z,101819.28
2023-05-17T11:41:48.943Z,101820.55
2023-05-17T11:44:32.106Z,101819.91
2023-05-17T11:47:05.364Z,101821.85
2023-05-17T11:49:37.214Z,101809.05
2023-05-17T11:52:07.238Z,101823.85
2023-05-17T11:54:39.026Z,101824.48
2023-05-17T11:57:07.373Z,101821.14
2023-05-17T11:59:43.373Z,101825.63
2023-05-17T12:02:26.649Z,101834.69
2023-05-17T12:04:54.903Z,101830.70
2023-05-17T12:07:25.856Z,101837.94
2023-05-17T12:09:54.161Z,101836.21
2023-05-17T12:12:22.684Z,101839.19
2023-05-17T12:14:51.159Z,101843.45
2023-05-17T12:17:31.769Z,101840.80
2023-05-17T12:20:10.293Z,101834.89
2023-05-17T12:22:54.997Z,101832.60
2023-05-17T12:25:29.676Z,101833.27
2023-05-17T12:28:23.009Z,101832.66
2023-05-17T12:30:58.183Z,101846.98
2023-05-17T12:33:27.099Z,101856.54
2023-05-17T12:35:55.861Z,101854.55
2023-05-17T12:38:28.069Z,101862.02
2023-05-17T12:40:56.427Z,101858.10
2023-05-17T12:43:25.015Z,101845.98
2023-05-17T12:45:53.365Z,101859.08
2023-05-17T12:48:26.507Z,101842.77
2023-05-17T12:50:56.145Z,101860.58
2023-05-17T12:53:26.061Z,101866.24
2023-05-17T12:55:58.101Z,101871.14
2023-05-17T12:58:26.543Z,101879.22
2023-05-17T13:01:03.446Z,101883.23
2023-05-17T13:03:32.164Z,101876.61
2023-05-17T13:06:03.210Z,101878.05
2023-05-17T13:08:32.655Z,101882.91
2023-05-17T13:11:12.732Z,101885.27
2023-05-17T13:13:42.219Z,101894.15
2023-05-17T13:16:10.510Z,101902.09
2023-05-17T13:18:52.077Z,101907.17
2023-05-17T13:21:21.278Z,101908.27
2023-05-17T13:23:50.422Z,101918.08
2023-05-17T13:26:19.710Z,101922.42
2023-05-17T13:28:48.715Z,101923.07
2023-05-17T13:31:16.906Z,101923.52
2023-05-17T13:33:45.418Z,101931.48
2023-05-17T13:36:13.650Z,101932.71
2023-05-17T13:38:41.822Z,101934.61
2023-05-17T13:41:10.500Z,101929.30
2023-05-17T13:43:38.776Z,101928.43
2023-05-17T13:46:07.256Z,101937.64
2023-05-17T13:48:35.672Z,101939.14
2023-05-17T13:51:04.070Z,101940.62
2023-05-17T13:53:32.283Z,101948.98
2023-05-17T13:56:00.782Z,101952.89
2023-05-17T13:58:29.043Z,101957.58
2023-05-17T14:00:57.418Z,101951.89
2023-05-17T14:03:25.635Z,101957.89
2023-05-17T14:05:54.414Z,101956.12
2023-05-17T14:08:22.616Z,101945.75
2023-05-17T14:10:50.859Z,101955.22
2023-05-17T14:13:19.048Z,101960.67
2023-05-17T14:15:47.453Z,101964.88
2023-05-17T14:18:15.872Z,101962.13
2023-05-17T14:20:44.144Z,101963.16
2023-05-17T14:23:12.351Z,101965.67
2023-05-17T14:25:40.545Z,101966.12
2023-05-17T14:28:08.645Z,101973.65
2023-05-17T14:30:36.868Z,101977.98
2023-05-17T14:33:05.174Z,101970.55
2023-05-17T14:35:33.424Z,101979.52
2023-05-17T14:38:01.607Z,101984.88
2023-05-17T14:40:29.985Z,101992.52
2023-05-17T14:42:58.326Z,101997.97
2023-05-17T14:45:26.909Z,101993.65
2023-05-17T14:47:55.168Z,101990.65
2023-05-17T14:50:23.365Z,102005.68
2023-05-17T14:52:51.578Z,102006.55
2023-05-17T14:55:20.032Z,102013.64
2023-05-17T14:57:48.412Z,102018.27
2023-05-17T15:00:17.733Z,102022.50
2023-05-17T15:02:46.086Z,102017.46
2023-05-17T15:05:14.453Z,102030.48
2023-05-17T15:07:42.720Z,102033.59
2023-05-17T15:10:13.109Z,102037.41
2023-05-17T15:12:41.351Z,102036.23
2023-05-17T15:15:09.989Z,102032.26
2023-05-17T15:17:38.292Z,102039.90
2023-05-17T15:20:07.688Z,102047.64
2023-05-17T15:22:36.829Z,102051.18
2023-05-17T15:25:05.992Z,102051.53
2023-05-17T15:27:34.238Z,102051.77
2023-05-17T15:30:02.450Z,102054.30
2023-05-17T15:32:30.699Z,102054.14
2023-05-17T15:34:59.330Z,102062.10
2023-05-17T15:37:27.840Z,102063.40
2023-05-17T15:39:56.360Z,102072.94
2023-05-17T15:42:24.621Z,102069.98
2023-05-17T15:44:52.728Z,102073.20
2023-05-17T15:47:42.546Z,102081.56
2023-05-17T15:50:12.225Z,102085.02
2023-05-17T15:52:40.971Z,102090.06
2023-05-17T15:55:09.999Z,102096.75
2023-05-17T15:57:38.214Z,102091.15
2023-05-17T16:00:08.776Z,102098.70
2023-05-17T16:02:37.755Z,102107.90
2023-05-17T16:05:07.625Z,102116.40
2023-05-17T16:07:35.876Z,102117.42
2023-05-17T16:10:04.322Z,102121.41
2023-05-17T16:12:32.548Z,102125.45
2023-05-17T16:15:00.691Z,102123.59
2023-05-17T16:17:28.994Z,102120.65
2023-05-17T16:19:57.329Z,102121.17
2023-05-17T16:22:25.690Z,102125.72
2023-05-17T16:24:53.992Z,102123.48
2023-05-17T16:27:22.158Z,102126.41
2023-05-17T16:29:50.542Z,102137.52
2023-05-17T16:32:18.766Z,102137.58
2023-05-17T16:34:47.318Z,102137.91
2023-05-17T16:37:15.911Z,102142.22
2023-05-17T16:39:44.576Z,102145.99
2023-05-17T16:42:12.838Z,102150.42
2023-05-17T16:44:41.385Z,102153.44
2023-05-17T16:47:09.849Z,102155.78
2023-05-17T16:49:38.816Z,102161.16
2023-05-17T16:52:08.016Z,102169.05
2023-05-17T16:54:36.634Z,102177.27
2023-05-17T16:57:07.939Z,102184.92
2023-05-17T16:59:36.583Z,102187.70
2023-05-17T17:02:05.336Z,102195.23
2023-05-17T17:04:33.599Z,102196.50
2023-05-17T17:07:01.842Z,102190.02
2023-05-17T17:09:30.090Z,102204.36
2023-05-17T17:11:58.209Z,102214.13
2023-05-17T17:14:26.414Z,102220.61
2023-05-17T17:16:54.722Z,102208.83
2023-05-17T17:19:23.097Z,102221.10
2023-05-17T17:21:51.622Z,102221.90
2023-05-17T17:24:20.197Z,102222.27
2023-05-17T17:26:49.994Z,102223.27
2023-05-17T17:29:18.209Z,102221.16
2023-05-17T17:31:46.436Z,102221.07
2023-05-17T17:34:14.604Z,102223.14
2023-05-17T17:36:44.252Z,102224.42
2023-05-17T17:39:14.562Z,102226.96
2023-05-17T17:41:43.296Z,102231.59
2023-05-17T17:44:11.477Z,102230.95
2023-05-17T17:46:39.754Z,102231.00
2023-05-17T17:49:08.008Z,102243.37
2023-05-17T17:51:36.205Z,102253.00
2023-05-17T17:54:05.640Z,102254.24
2023-05-17T17:56:34.080Z,102258.59
2023-05-17T17:59:02.531Z,102260.76
2023-05-17T18:01:32.628Z,102261.87
2023-05-17T18:04:01.725Z,102261.67
2023-05-17T18:06:29.902Z,102258.80
2023-05-17T18:08:58.288Z,102264.74
2023-05-17T18:11:27.099Z,102266.44
2023-05-17T18:13:55.763Z,102269.70
2023-05-17T18:16:24.042Z,102269.48
2023-05-17T18:18:52.280Z,102245.52
2023-05-17T18:21:20.470Z,102271.04
2023-05-17T18:23:48.699Z,102267.42
2023-05-17T18:26:16.970Z,102273.56
2023-05-17T18:28:45.244Z,102271.98
2023-05-17T18:31:15.471Z,102275.64
2023-05-17T18:33:44.064Z,102282.41
2023-05-17T18:36:12.624Z,102287.08
2023-05-17T18:38:41.002Z,102295.60
2023-05-17T18:41:09.480Z,102294.27
2023-05-17T18:43:38.165Z,102300.44
2023-05-17T18:46:06.343Z,102297.29
2023-05-17T18:48:36.820Z,102298.55
2023-05-17T18:51:05.149Z,102298.08
2023-05-17T18:53:33.318Z,102301.98
2023-05-17T18:56:02.723Z,102298.70
2023-05-17T18:58:31.146Z,102303.55
2023-05-17T19:01:00.573Z,102302.79
2023-05-17T19:03:29.015Z,102305.30
2023-05-17T19:05:57.776Z,102294.45
2023-05-17T19:08:26.111Z,102310.10
2023-05-17T19:10:54.537Z,102305.42
2023-05-17T19:13:22.687Z,102311.79
2023-05-17T19:15:52.771Z,102311.05
2023-05-17T19:18:21.085Z,102308.23
2023-05-17T19:20:49.400Z,102310.94
2023-05-17T19:23:17.653Z,102311.04
2023-05-17T19:25:45.793Z,102310.73
2023-05-17T19:28:14.293Z,102313.85
2023-05-17T19:30:42.613Z,102315.19
2023-05-17T19:33:12.095Z,102315.66
2023-05-17T19:35:41.019Z,102320.30
2023-05-17T19:38:09.211Z,102320.20
2023-05-17T19:40:38.434Z,102319.60
2023-05-17T19:43:06.782Z,102314.48
2023-05-17T19:45:35.064Z,102313.85
2023-05-17T19:48:05.383Z,102302.91
2023-05-17T19:50:35.075Z,102315.73
2023-05-17T19:53:03.642Z,102317.95
2023-05-17T19:55:32.146Z,102318.65
2023-05-17T19:58:01.456Z,102317.89
2023-05-17T20:00:30.116Z,102316.23
2023-05-17T20:02:58.584Z,102323.19
2023-05-17T20:05:27.326Z,102317.27
2023-05-17T20:07:55.612Z,102317.41
2023-05-17T20:10:25.034Z,102321.69
2023-05-17T20:12:53.708Z,102327.78
2023-05-17T20:15:22.906Z,102329.98
2023-05-17T20:17:51.692Z,102330.39
2023-05-17T20:20:19.984Z,102330.39
2023-05-17T20:22:48.461Z,102329.25
2023-05-17T20:25:16.637Z,102334.39
2023-05-17T20:27:44.796Z,102332.39
2023-05-17T20:30:13.524Z,102335.77
2023-05-17T20:32:41.772Z,102332.59
2023-05-17T20:35:11.641Z,102336.93
2023-05-17T20:37:39.807Z,102334.25
2023-05-17T20:40:09.251Z,102337.10
2023-05-17T20:42:37.857Z,102338.92
2023-05-17T20:45:06.616Z,102336.88
2023-05-17T20:47:36.884Z,102335.32
2023-05-17T20:50:06.393Z,102336.44
2023-05-17T20:52:39.356Z,102339.02
2023-05-17T20:55:09.564Z,102338.39
2023-05-17T20:57:37.811Z,102331.27
2023-05-17T21:00:08.666Z,102333.42
2023-05-17T21:02:38.278Z,102335.14
2023-05-17T21:05:06.653Z,102334.84
2023-05-17T21:07:35.296Z,102340.64
2023-05-17T21:10:03.518Z,102346.52
2023-05-17T21:12:32.245Z,102349.00
2023-05-17T21:15:15.308Z,102349.46
2023-05-17T21:17:45.314Z,102351.26
2023-05-17T21:20:14.542Z,102337.62
2023-05-17T21:22:43.106Z,102349.00
2023-05-17T21:25:11.333Z,102345.31
2023-05-17T21:27:39.529Z,102350.64
2023-05-17T21:30:08.572Z,102347.95
2023-05-17T21:32:37.072Z,102336.11
2023-05-17T21:35:05.797Z,102352.48
2023-05-17T21:37:34.890Z,102361.54
2023-05-17T21:40:03.237Z,102370.26
2023-05-17T21:42:31.354Z,102370.92
2023-05-17T21:44:59.612Z,102368.70
2023-05-17T21:47:27.766Z,102366.02
2023-05-17T21:49:56.245Z,102365.43
2023-05-17T21:52:24.461Z,102364.83
2023-05-17T21:54:52.648Z,102370.27
2023-05-17T21:57:21.298Z,102372.80
2023-05-17T21:59:50.949Z,102370.17
2023-05-17T22:02:19.280Z,102366.67
2023-05-17T22:04:47.489Z,102361.61
2023-05-17T22:07:15.816Z,102361.73
2023-05-17T22:09:45.586Z,102363.36
2023-05-17T22:12:13.839Z,102365.70
2023-05-17T22:14:44.695Z,102367.05
2023-05-17T22:17:12.893Z,102370.07
2023-05-17T22:19:41.814Z,102367.08
2023-05-17T22:22:10.145Z,102367.06
2023-05-17T22:24:38.356Z,102368.37
2023-05-17T22:27:06.851Z,102367.03
2023-05-17T22:29:35.084Z,102374.42
2023-05-17T22:32:03.410Z,102345.96
2023-05-17T22:34:33.002Z,102371.53
2023-05-17T22:37:01.146Z,102356.87
2023-05-17T22:39:29.342Z,102371.58
2023-05-17T22:41:58.276Z,102364.49
2023-05-17T22:44:26.734Z,102370.66
2023-05-17T22:46:57.969Z,102375.05
2023-05-17T22:49:26.414Z,102370.77
2023-05-17T22:51:54.619Z,102371.66
2023-05-17T22:54:22.923Z,102371.64
2023-05-17T22:56:51.024Z,102373.75
2023-05-17T22:59:19.138Z,102375.28
2023-05-17T23:01:47.734Z,102371.30
2023-05-17T23:04:16.128Z,102368.30
2023-05-17T23:06:44.317Z,102369.63
2023-05-17T23:09:12.445Z,102370.98
2023-05-17T23:11:41.208Z,102373.46
2023-05-17T23:14:11.594Z,102378.44
2023-05-17T23:16:40.214Z,102380.80
2023-05-17T23:19:09.020Z,102389.67
2023-05-17T23:21:37.603Z,102397.26
2023-05-17T23:24:08.162Z,102398.30
2023-05-17T23:26:36.399Z,102407.98
2023-05-17T23:29:05.545Z,102407.11
2023-05-17T23:31:35.409Z,102414.44
2023-05-17T23:34:03.837Z,102422.43
2023-05-17T23:36:32.035Z,102432.86
2023-05-17T23:39:00.330Z,102433.11
2023-05-17T23:41:29.616Z,102438.08
2023-05-17T23:43:57.840Z,102451.27
2023-05-17T23:46:26.917Z,102457.20
2023-05-17T23:48:57.480Z,102456.41
2023-05-17T23:51:25.821Z,102458.27
2023-05-17T23:53:54.110Z,102455.20
2023-05-17T23:56:23.292Z,102462.98
2023-05-17T23:58:51.539Z,102466.46
